Solomons, MD (20688)

12:57 PM EDT on March 28, 2015 (GMT -0400)
The Soundings | | Change Station
CLOSE
Current Station
Personal Weather Station
Location: Lusby, MD
Elevation: 69 ft
Nearby Weather Stations

Elev 69 ft 38.34 °N, 76.43 °W | Updated 1 second ago

Clear
Clear
36.0 °F
Feels Like 32 °F
N
5.1
Wind Variable Wind from West
Gusts 11.4 mph

Today
High -- | Low -- °F
--% Chance of Precip.
Yesterday
High -- | Low -- °F
Precip. -- in
6:57 AM 7:25 PM
Waxing Gibbous, 63% visible
Pressure 29.99 in
Visibility 10.0 miles
Clouds Few 6000 ft
Scattered Clouds 8000 ft
Windchill 32 °F
Dew Point -0 °F
Humidity 21%
Rainfall in
Snow Depth Not available.
UV 7 out of 12
Pollen 9.10 out of 12
Air Quality Not available.
Flu Activity Not available.
METAR KNHK 281652Z 32023G29KT 10SM FEW060 SCT080 02/M13 A2999 RMK AO2 PK WND 32030/1555 SLP154 T00221128

More Conditions Fewer Conditions

Pressure 29.99 in
Visibility 10.0 miles
Clouds Few 6000 ft
Scattered Clouds 8000 ft
Windchill 32 °F
Dew Point -0 °F
Humidity 21%
Rainfall in
Snow Depth Not available.
UV 7 out of 12
Pollen 9.10 out of 12
Air Quality Not available.
Flu Activity Not available.
METAR KNHK 281652Z 32023G29KT 10SM FEW060 SCT080 02/M13 A2999 RMK AO2 PK WND 32030/1555 SLP154 T00221128

More Conditions Fewer Conditions

10-Day Weather Forecast

Almanac

Astronomy

Mar. 28, 2015 Rise Set
Actual Time
Civil Twilight
Nautical Twilight
Astronomical Twilight
Moon
Length of Visible Light
Length of Day
Tomorrow will be .
, % of the Moon is Illuminated

Today's Extremes

State Highs State Lows

Community

WunderPhotos

Upload Photos

1,809,028 photos uploaded!

WunderBlogs® & News

Nearby

Air Quality

  Air Quality AQ Index Pollutant
Not available.

Snow Depth

Station Depth Elevation

Earthquake Activity

City Distance Mag. Time & Date
Minimum magnitude displayed is 2.5.

Coastal Water Temperatures

Place Temperature

Stations

Nearby Weather Stations

Station Location Temp. Windchill Dew Point Humidity Wind Precip. Elev Updated Type